createdAt,value
2018-07-01T00:00:48.552Z,18.60
2018-07-01T00:03:16.785Z,18.50
2018-07-01T00:05:44.998Z,18.50
2018-07-01T00:08:13.228Z,18.50
2018-07-01T00:10:41.461Z,18.50
2018-07-01T00:13:09.665Z,18.50
2018-07-01T00:15:37.863Z,18.50
2018-07-01T00:18:06.103Z,18.40
2018-07-01T00:20:34.317Z,18.40
2018-07-01T00:23:02.524Z,18.40
2018-07-01T00:25:30.726Z,18.30
2018-07-01T00:27:58.923Z,18.30
2018-07-01T00:30:27.144Z,18.40
2018-07-01T00:35:23.326Z,18.20
2018-07-01T00:37:51.544Z,18.20
2018-07-01T00:40:19.762Z,18.20
2018-07-01T00:42:47.963Z,18.20
2018-07-01T00:45:16.162Z,18.10
2018-07-01T00:47:44.366Z,18.10
2018-07-01T00:52:40.531Z,18.00
2018-07-01T00:55:08.759Z,18.00
2018-07-01T00:57:36.977Z,18.00
2018-07-01T01:00:05.241Z,18.00
2018-07-01T01:05:01.319Z,18.00
2018-07-01T01:07:29.465Z,18.00
2018-07-01T01:09:57.648Z,17.90
2018-07-01T01:12:25.932Z,17.90
2018-07-01T01:14:54.070Z,17.70
2018-07-01T01:17:22.236Z,17.70
2018-07-01T01:19:50.380Z,17.60
2018-07-01T01:22:18.571Z,17.60
2018-07-01T01:24:46.727Z,17.50
2018-07-01T01:27:14.893Z,17.40
2018-07-01T01:29:43.062Z,17.40
2018-07-01T01:32:11.227Z,17.30
2018-07-01T01:34:39.397Z,17.40
2018-07-01T01:37:07.558Z,17.30
2018-07-01T01:39:38.364Z,17.30
2018-07-01T01:44:46.296Z,17.20
2018-07-01T01:47:21.892Z,17.20
2018-07-01T01:49:56.438Z,17.10
2018-07-01T01:52:30.058Z,17.10
2018-07-01T01:57:35.807Z,17.10
2018-07-01T02:00:10.280Z,17.00
2018-07-01T02:02:49.080Z,17.00
2018-07-01T02:05:26.240Z,16.90
2018-07-01T02:12:53.438Z,16.90
2018-07-01T02:17:56.218Z,16.80
2018-07-01T02:20:28.295Z,16.80
2018-07-01T02:25:31.919Z,16.70
2018-07-01T02:28:00.090Z,16.70
2018-07-01T02:32:56.174Z,16.70
2018-07-01T02:35:24.373Z,16.60
2018-07-01T02:37:52.491Z,16.60
2018-07-01T02:40:20.642Z,16.50
2018-07-01T02:42:48.810Z,16.50
2018-07-01T02:45:16.996Z,16.40
2018-07-01T02:52:41.041Z,16.40
2018-07-01T02:55:09.203Z,16.40
2018-07-01T02:57:37.466Z,16.40
2018-07-01T03:00:05.683Z,16.40
2018-07-01T03:02:33.840Z,16.40
2018-07-01T03:05:01.980Z,16.30
2018-07-01T03:07:30.127Z,16.30
2018-07-01T03:09:58.268Z,16.30
2018-07-01T03:12:26.452Z,16.30
2018-07-01T03:14:54.596Z,16.20
2018-07-01T03:17:22.744Z,16.30
2018-07-01T03:19:50.920Z,16.30
2018-07-01T03:22:19.183Z,16.30
2018-07-01T03:27:15.287Z,16.30
2018-07-01T03:29:43.455Z,16.30
2018-07-01T03:32:11.607Z,16.30
2018-07-01T03:34:39.767Z,16.20
2018-07-01T03:37:07.936Z,16.30
2018-07-01T03:39:36.098Z,16.20
2018-07-01T03:44:32.203Z,16.10
2018-07-01T03:47:00.353Z,16.10
2018-07-01T03:49:28.508Z,16.10
2018-07-01T03:51:56.765Z,16.10
2018-07-01T03:54:24.954Z,16.10
2018-07-01T03:56:53.106Z,16.10
2018-07-01T04:01:49.712Z,16.00
2018-07-01T04:04:17.974Z,16.10
2018-07-01T04:06:46.173Z,16.10
2018-07-01T04:09:14.495Z,16.10
2018-07-01T04:11:42.729Z,16.00
2018-07-01T04:14:10.948Z,16.00
2018-07-01T04:16:39.602Z,16.00
2018-07-01T04:19:07.814Z,16.10
2018-07-01T04:21:36.021Z,16.10
2018-07-01T04:24:04.273Z,16.20
2018-07-01T04:26:32.531Z,16.20
2018-07-01T04:31:28.850Z,16.20
2018-07-01T04:33:57.070Z,16.20
2018-07-01T04:36:25.282Z,16.20
2018-07-01T04:38:53.513Z,16.10
2018-07-01T04:41:21.721Z,16.20
2018-07-01T04:43:49.935Z,16.20
2018-07-01T04:46:18.130Z,16.30
2018-07-01T04:48:46.363Z,16.30
2018-07-01T04:51:14.580Z,16.30
2018-07-01T04:53:42.803Z,16.20
2018-07-01T04:56:11.026Z,16.20
2018-07-01T04:58:39.226Z,16.30
2018-07-01T05:01:07.626Z,16.30
2018-07-01T05:03:35.835Z,16.30
2018-07-01T05:06:04.050Z,16.40
2018-07-01T05:08:32.606Z,16.50
2018-07-01T05:11:00.811Z,16.60
2018-07-01T05:13:29.032Z,16.70
2018-07-01T05:15:57.229Z,16.80
2018-07-01T05:18:25.431Z,17.00
2018-07-01T05:20:53.655Z,17.20
2018-07-01T05:23:21.876Z,17.80
2018-07-01T05:25:50.101Z,17.50
2018-07-01T05:28:18.302Z,17.70
2018-07-01T05:30:46.501Z,17.90
2018-07-01T05:33:14.726Z,18.00
2018-07-01T05:35:42.935Z,18.10
2018-07-01T05:38:11.140Z,18.20
2018-07-01T05:40:39.358Z,18.40
2018-07-01T05:43:07.548Z,18.50
2018-07-01T05:45:35.891Z,18.50
2018-07-01T05:48:04.122Z,18.60
2018-07-01T05:50:32.334Z,18.70
2018-07-01T05:53:00.550Z,18.90
2018-07-01T05:55:28.827Z,19.10
2018-07-01T05:57:57.064Z,19.20
2018-07-01T06:00:25.227Z,19.40
2018-07-01T06:02:53.378Z,19.60
2018-07-01T06:05:21.519Z,19.80
2018-07-01T06:07:49.683Z,19.90
2018-07-01T06:12:45.778Z,20.20
2018-07-01T06:15:13.938Z,20.30
2018-07-01T06:17:42.109Z,20.40
2018-07-01T06:20:10.552Z,20.50
2018-07-01T06:22:39.025Z,20.80
2018-07-01T06:25:07.189Z,20.70
2018-07-01T06:27:35.351Z,20.80
2018-07-01T06:30:03.570Z,21.00
2018-07-01T06:32:31.728Z,21.10
2018-07-01T06:34:59.886Z,21.20
2018-07-01T06:37:28.051Z,21.20
2018-07-01T06:39:56.239Z,21.30
2018-07-01T06:42:24.453Z,21.20
2018-07-01T06:44:52.642Z,21.10
2018-07-01T06:47:21.084Z,21.00
2018-07-01T06:49:49.245Z,21.10
2018-07-01T06:52:17.501Z,21.30
2018-07-01T06:54:45.675Z,21.40
2018-07-01T06:57:13.834Z,21.50
2018-07-01T06:59:42.165Z,21.60
2018-07-01T07:02:10.369Z,21.70
2018-07-01T07:04:38.622Z,21.90
2018-07-01T07:07:06.844Z,22.20
2018-07-01T07:09:35.046Z,22.40
2018-07-01T07:14:31.434Z,22.40
2018-07-01T07:16:59.900Z,22.90
2018-07-01T07:19:28.336Z,22.50
2018-07-01T07:24:24.979Z,22.90
2018-07-01T07:26:53.489Z,23.50
2018-07-01T07:29:21.925Z,23.00
2018-07-01T07:31:50.469Z,23.20
2018-07-01T07:34:18.889Z,23.10
2018-07-01T07:36:47.331Z,23.00
2018-07-01T07:39:15.819Z,23.00
2018-07-01T07:41:44.312Z,23.00
2018-07-01T07:44:12.843Z,23.10
2018-07-01T07:46:41.237Z,23.10
2018-07-01T07:49:09.692Z,23.30
2018-07-01T07:51:38.159Z,23.40
2018-07-01T07:54:06.622Z,23.50
2018-07-01T07:56:35.115Z,23.50
2018-07-01T07:59:03.620Z,23.60
2018-07-01T08:01:32.137Z,23.60
2018-07-01T08:04:00.606Z,23.80
2018-07-01T08:06:29.055Z,23.90
2018-07-01T08:08:57.501Z,24.00
2018-07-01T08:11:25.960Z,24.10
2018-07-01T08:13:54.461Z,24.10
2018-07-01T08:16:22.967Z,24.10
2018-07-01T08:18:51.478Z,24.20
2018-07-01T08:21:19.969Z,23.90
2018-07-01T08:23:48.519Z,23.90
2018-07-01T08:26:17.035Z,23.50
2018-07-01T08:28:45.582Z,23.70
2018-07-01T08:31:14.024Z,23.90
2018-07-01T08:33:42.439Z,24.00
2018-07-01T08:36:10.911Z,24.20
2018-07-01T08:38:39.353Z,24.30
2018-07-01T08:41:07.804Z,24.40
2018-07-01T08:43:36.260Z,24.40
2018-07-01T08:46:04.701Z,24.40
2018-07-01T08:48:33.143Z,24.40
2018-07-01T08:51:01.578Z,24.50
2018-07-01T08:53:30.064Z,24.50
2018-07-01T08:55:58.673Z,24.60
2018-07-01T08:58:27.119Z,24.70
2018-07-01T09:00:55.605Z,24.80
2018-07-01T09:03:24.057Z,24.80
2018-07-01T09:05:52.487Z,24.60
2018-07-01T09:08:20.944Z,24.70
2018-07-01T09:10:49.396Z,24.90
2018-07-01T09:13:17.836Z,24.90
2018-07-01T09:15:46.298Z,25.10
2018-07-01T09:18:14.782Z,25.20
2018-07-01T09:20:43.278Z,25.30
2018-07-01T09:25:39.844Z,25.10
2018-07-01T09:28:08.357Z,25.10
2018-07-01T09:30:36.756Z,25.20
2018-07-01T09:33:05.303Z,25.30
2018-07-01T09:35:33.729Z,25.30
2018-07-01T09:38:02.167Z,25.30
2018-07-01T09:40:30.678Z,25.40
2018-07-01T09:42:59.110Z,25.40
2018-07-01T09:47:55.800Z,25.50
2018-07-01T09:50:24.341Z,25.40
2018-07-01T09:52:52.764Z,25.40
2018-07-01T09:55:21.265Z,25.60
2018-07-01T09:57:49.706Z,25.70
2018-07-01T10:00:18.181Z,25.70
2018-07-01T10:02:46.627Z,25.80
2018-07-01T10:05:15.082Z,25.90
2018-07-01T10:07:43.574Z,25.50
2018-07-01T10:10:12.036Z,26.10
2018-07-01T10:12:40.909Z,25.50
2018-07-01T10:15:09.330Z,25.80
2018-07-01T10:17:37.832Z,25.70
2018-07-01T10:20:06.338Z,25.70
2018-07-01T10:22:34.901Z,25.80
2018-07-01T10:25:03.349Z,25.80
2018-07-01T10:27:31.781Z,25.80
2018-07-01T10:30:00.282Z,25.90
2018-07-01T10:32:28.823Z,25.90
2018-07-01T10:34:57.280Z,25.90
2018-07-01T10:39:53.916Z,25.70
2018-07-01T10:42:22.410Z,25.70
2018-07-01T10:44:50.886Z,25.70
2018-07-01T10:47:19.372Z,25.80
2018-07-01T10:49:47.862Z,25.90
2018-07-01T10:52:16.481Z,25.80
2018-07-01T10:54:44.937Z,25.90
2018-07-01T10:57:13.399Z,25.70
2018-07-01T10:59:41.770Z,25.60
2018-07-01T11:02:10.166Z,25.60
2018-07-01T11:07:06.647Z,25.60
2018-07-01T11:09:35.069Z,25.60
2018-07-01T11:12:03.472Z,25.50
2018-07-01T11:16:59.986Z,25.50
2018-07-01T11:19:28.391Z,25.60
2018-07-01T11:21:56.755Z,25.60
2018-07-01T11:24:25.246Z,25.60
2018-07-01T11:26:53.802Z,25.60
2018-07-01T11:29:22.143Z,25.10
2018-07-01T11:31:50.500Z,25.60
2018-07-01T11:36:46.975Z,25.50
2018-07-01T11:39:15.345Z,25.40
2018-07-01T11:41:43.701Z,25.50
2018-07-01T11:44:12.094Z,25.60
2018-07-01T11:46:40.483Z,25.50
2018-07-01T11:51:36.987Z,25.70
2018-07-01T11:54:05.591Z,25.70
2018-07-01T11:56:34.036Z,25.60
2018-07-01T11:59:02.580Z,25.40
2018-07-01T12:01:30.944Z,25.60
2018-07-01T12:03:59.336Z,25.70
2018-07-01T12:06:27.729Z,25.50
2018-07-01T12:08:56.093Z,25.50
2018-07-01T12:11:24.510Z,25.50
2018-07-01T12:13:52.902Z,25.50
2018-07-01T12:16:21.228Z,25.10
2018-07-01T12:18:49.575Z,25.30
2018-07-01T12:21:17.921Z,25.30
2018-07-01T12:23:46.284Z,25.40
2018-07-01T12:26:14.703Z,25.30
2018-07-01T12:28:43.103Z,25.30
2018-07-01T12:31:11.483Z,25.30
2018-07-01T12:33:39.817Z,25.30
2018-07-01T12:36:08.191Z,25.40
2018-07-01T12:38:36.557Z,25.50
2018-07-01T12:41:04.987Z,25.60
2018-07-01T12:43:33.371Z,25.70
2018-07-01T12:46:01.903Z,25.70
2018-07-01T12:48:30.315Z,25.70
2018-07-01T12:50:58.721Z,25.60
2018-07-01T12:53:27.150Z,25.50
2018-07-01T12:55:55.529Z,25.50
2018-07-01T12:58:23.871Z,25.50
2018-07-01T13:00:52.235Z,25.50
2018-07-01T13:03:20.828Z,25.50
2018-07-01T13:05:49.217Z,25.50
2018-07-01T13:08:17.585Z,25.60
2018-07-01T13:10:46.039Z,25.70
2018-07-01T13:13:14.440Z,25.60
2018-07-01T13:15:42.813Z,25.70
2018-07-01T13:18:11.142Z,25.70
2018-07-01T13:20:39.511Z,25.40
2018-07-01T13:23:07.867Z,25.40
2018-07-01T13:25:36.302Z,25.50
2018-07-01T13:28:04.701Z,25.40
2018-07-01T13:30:33.152Z,25.50
2018-07-01T13:33:01.579Z,25.40
2018-07-01T13:35:29.958Z,25.50
2018-07-01T13:37:58.304Z,25.50
2018-07-01T13:42:54.831Z,25.40
2018-07-01T13:45:23.184Z,25.40
2018-07-01T13:47:51.622Z,25.30
2018-07-01T13:50:20.056Z,25.40
2018-07-01T13:52:48.431Z,25.40
2018-07-01T13:55:16.741Z,25.50
2018-07-01T13:57:45.133Z,25.40
2018-07-01T14:00:13.518Z,25.40
2018-07-01T14:02:41.909Z,25.50
2018-07-01T14:05:10.311Z,25.50
2018-07-01T14:07:38.672Z,25.60
2018-07-01T14:10:07.088Z,25.70
2018-07-01T14:12:35.600Z,25.70
2018-07-01T14:15:04.269Z,25.20
2018-07-01T14:17:32.747Z,25.60
2018-07-01T14:20:01.006Z,25.60
2018-07-01T14:22:29.380Z,25.60
2018-07-01T14:24:57.842Z,25.60
2018-07-01T14:27:26.224Z,25.70
2018-07-01T14:29:54.570Z,25.70
2018-07-01T14:32:22.955Z,25.70
2018-07-01T14:37:19.401Z,25.80
2018-07-01T14:39:47.708Z,25.80
2018-07-01T14:42:16.255Z,25.80
2018-07-01T14:44:44.771Z,25.70
2018-07-01T14:47:13.153Z,25.70
2018-07-01T14:49:41.549Z,25.70
2018-07-01T14:52:09.941Z,25.70
2018-07-01T14:54:38.371Z,25.70
2018-07-01T14:57:06.739Z,25.70
2018-07-01T14:59:35.093Z,25.60
2018-07-01T15:02:03.505Z,25.60
2018-07-01T15:04:31.926Z,25.40
2018-07-01T15:07:00.363Z,25.40
2018-07-01T15:09:28.784Z,25.40
2018-07-01T15:11:57.134Z,25.40
2018-07-01T15:14:25.523Z,25.40
2018-07-01T15:16:53.875Z,25.00
2018-07-01T15:19:22.234Z,25.30
2018-07-01T15:21:50.664Z,25.30
2018-07-01T15:24:19.028Z,25.20
2018-07-01T15:26:47.518Z,25.40
2018-07-01T15:29:15.939Z,25.40
2018-07-01T15:31:44.297Z,25.30
2018-07-01T15:34:12.646Z,25.40
2018-07-01T15:36:41.088Z,25.40
2018-07-01T15:39:10.516Z,25.40
2018-07-01T15:41:39.036Z,25.30
2018-07-01T15:44:07.444Z,25.20
2018-07-01T15:49:04.059Z,25.10
2018-07-01T15:51:32.506Z,25.10
2018-07-01T15:54:01.101Z,25.20
2018-07-01T15:56:29.646Z,25.20
2018-07-01T15:58:58.057Z,25.20
2018-07-01T16:01:26.420Z,25.20
2018-07-01T16:03:54.817Z,25.20
2018-07-01T16:06:23.232Z,25.20
2018-07-01T16:08:51.628Z,25.10
2018-07-01T16:11:20.096Z,25.20
2018-07-01T16:13:48.983Z,25.20
2018-07-01T16:16:17.471Z,24.90
2018-07-01T16:18:45.946Z,24.80
2018-07-01T16:21:14.385Z,25.00
2018-07-01T16:23:42.792Z,25.00
2018-07-01T16:26:16.549Z,24.90
2018-07-01T16:28:50.265Z,24.90
2018-07-01T16:31:18.702Z,24.90
2018-07-01T16:36:15.252Z,24.90
2018-07-01T16:38:43.642Z,24.90
2018-07-01T16:41:12.052Z,24.80
2018-07-01T16:43:40.441Z,24.80
2018-07-01T16:46:08.781Z,24.90
2018-07-01T16:48:37.218Z,24.90
2018-07-01T16:51:05.609Z,24.80
2018-07-01T16:53:34.008Z,24.90
2018-07-01T16:56:02.380Z,24.90
2018-07-01T16:58:30.696Z,24.90
2018-07-01T17:00:59.172Z,24.90
2018-07-01T17:03:27.596Z,24.90
2018-07-01T17:05:56.149Z,24.90
2018-07-01T17:08:24.577Z,24.90
2018-07-01T17:10:52.948Z,24.90
2018-07-01T17:13:21.323Z,24.90
2018-07-01T17:15:49.707Z,24.70
2018-07-01T17:18:18.043Z,24.50
2018-07-01T17:20:46.570Z,24.70
2018-07-01T17:23:15.037Z,25.00
2018-07-01T17:25:48.996Z,24.60
2018-07-01T17:28:17.435Z,24.60
2018-07-01T17:30:45.820Z,24.30
2018-07-01T17:33:19.730Z,24.20
2018-07-01T17:35:48.116Z,24.20
2018-07-01T17:38:16.486Z,24.10
2018-07-01T17:40:44.859Z,24.00
2018-07-01T17:43:13.362Z,23.90
2018-07-01T17:48:09.822Z,23.80
2018-07-01T17:53:06.279Z,23.90
2018-07-01T17:55:34.691Z,23.90
2018-07-01T17:58:03.129Z,23.90
2018-07-01T18:00:31.570Z,23.80
2018-07-01T18:03:00.098Z,23.90
2018-07-01T18:05:28.609Z,23.80
2018-07-01T18:07:57.052Z,23.70
2018-07-01T18:10:25.511Z,23.60
2018-07-01T18:12:53.947Z,23.60
2018-07-01T18:15:22.430Z,23.60
2018-07-01T18:17:50.900Z,23.50
2018-07-01T18:20:19.347Z,23.50
2018-07-01T18:23:18.230Z,23.40
2018-07-01T18:25:16.290Z,23.30
2018-07-01T18:27:47.838Z,23.20
2018-07-01T18:30:13.104Z,23.10
2018-07-01T18:32:41.523Z,23.20
2018-07-01T18:35:10.041Z,23.20
2018-07-01T18:37:38.533Z,23.20
2018-07-01T18:40:06.979Z,23.20
2018-07-01T18:42:35.198Z,23.10
2018-07-01T18:45:03.374Z,23.00
2018-07-01T18:47:31.634Z,22.90
2018-07-01T18:49:59.834Z,22.80
2018-07-01T18:52:28.032Z,22.70
2018-07-01T18:54:56.241Z,22.50
2018-07-01T18:57:24.450Z,22.50
2018-07-01T18:59:52.657Z,22.40
2018-07-01T19:02:20.853Z,22.40
2018-07-01T19:04:49.058Z,22.20
2018-07-01T19:07:17.246Z,22.10
2018-07-01T19:09:45.444Z,22.10
2018-07-01T19:12:13.652Z,22.00
2018-07-01T19:14:41.868Z,21.90
2018-07-01T19:17:10.053Z,21.80
2018-07-01T19:19:38.301Z,21.80
2018-07-01T19:22:06.524Z,21.80
2018-07-01T19:24:34.725Z,21.60
2018-07-01T19:27:02.923Z,21.60
2018-07-01T19:29:31.131Z,21.40
2018-07-01T19:31:59.346Z,21.30
2018-07-01T19:34:27.556Z,21.30
2018-07-01T19:36:55.758Z,21.20
2018-07-01T19:39:24.004Z,21.10
2018-07-01T19:44:20.514Z,21.00
2018-07-01T19:46:48.728Z,21.00
2018-07-01T19:51:44.901Z,20.90
2018-07-01T19:54:13.097Z,20.80
2018-07-01T19:56:41.303Z,20.80
2018-07-01T20:01:37.380Z,20.60
2018-07-01T20:04:05.587Z,20.50
2018-07-01T20:06:33.818Z,20.40
2018-07-01T20:09:02.954Z,20.40
2018-07-01T20:11:31.113Z,20.40
2018-07-01T20:13:59.264Z,20.40
2018-07-01T20:16:27.426Z,20.40
2018-07-01T20:18:55.587Z,20.30
2018-07-01T20:21:23.740Z,20.20
2018-07-01T20:23:52.163Z,20.20
2018-07-01T20:26:20.302Z,20.10
2018-07-01T20:28:48.444Z,20.40
2018-07-01T20:31:16.616Z,20.00
2018-07-01T20:33:44.777Z,19.90
2018-07-01T20:36:12.956Z,19.80
2018-07-01T20:38:41.106Z,19.70
2018-07-01T20:41:09.362Z,19.60
2018-07-01T20:43:37.707Z,19.60
2018-07-01T20:46:06.000Z,19.50
2018-07-01T20:48:34.301Z,19.50
2018-07-01T20:51:02.473Z,19.50
2018-07-01T20:53:30.655Z,19.50
2018-07-01T20:55:58.806Z,19.50
2018-07-01T20:58:26.950Z,19.30
2018-07-01T21:00:55.157Z,19.30
2018-07-01T21:03:23.342Z,19.30
2018-07-01T21:05:51.633Z,19.30
2018-07-01T21:08:19.749Z,19.30
2018-07-01T21:10:47.968Z,19.30
2018-07-01T21:13:16.171Z,19.30
2018-07-01T21:15:44.373Z,19.20
2018-07-01T21:18:12.668Z,19.20
2018-07-01T21:20:40.877Z,19.10
2018-07-01T21:23:09.094Z,19.10
2018-07-01T21:25:37.299Z,19.00
2018-07-01T21:33:01.399Z,18.90
2018-07-01T21:37:57.558Z,19.00
2018-07-01T21:40:25.763Z,18.90
2018-07-01T21:42:54.028Z,18.90
2018-07-01T21:45:22.280Z,18.90
2018-07-01T21:47:50.486Z,18.90
2018-07-01T21:50:18.716Z,18.90
2018-07-01T21:52:46.910Z,18.80
2018-07-01T21:55:15.159Z,18.70
2018-07-01T21:57:43.341Z,18.70
2018-07-01T22:00:11.573Z,18.60
2018-07-01T22:02:39.792Z,18.50
2018-07-01T22:05:08.142Z,18.40
2018-07-01T22:07:36.367Z,18.40
2018-07-01T22:10:04.599Z,18.30
2018-07-01T22:12:44.237Z,18.30
2018-07-01T22:15:25.624Z,18.30
2018-07-01T22:20:23.293Z,18.30
2018-07-01T22:22:51.492Z,18.30
2018-07-01T22:27:47.668Z,18.30
2018-07-01T22:30:15.880Z,18.30
2018-07-01T22:32:44.097Z,18.30
2018-07-01T22:35:12.306Z,18.30
2018-07-01T22:37:40.507Z,18.30
2018-07-01T22:40:08.743Z,18.20
2018-07-01T22:42:36.948Z,18.20
2018-07-01T22:45:05.189Z,18.20
2018-07-01T22:47:33.395Z,18.30
2018-07-01T22:50:01.616Z,18.20
2018-07-01T22:52:29.814Z,18.20
2018-07-01T22:54:58.028Z,18.20
2018-07-01T22:57:26.254Z,18.20
2018-07-01T22:59:54.407Z,18.20
2018-07-01T23:03:00.254Z,18.10
2018-07-01T23:05:28.429Z,18.00
2018-07-01T23:07:56.611Z,17.80
2018-07-01T23:10:25.905Z,17.70
2018-07-01T23:15:22.889Z,17.50
2018-07-01T23:17:51.076Z,17.50
2018-07-01T23:20:19.293Z,17.40
2018-07-01T23:22:47.447Z,17.40
2018-07-01T23:25:15.672Z,17.40
2018-07-01T23:27:44.753Z,17.30
2018-07-01T23:30:12.914Z,17.30
2018-07-01T23:32:41.910Z,17.30
2018-07-01T23:35:10.120Z,17.20
2018-07-01T23:37:38.794Z,17.30
2018-07-01T23:40:07.578Z,17.20
2018-07-01T23:42:35.865Z,17.20
2018-07-01T23:45:04.507Z,17.10
2018-07-01T23:47:32.661Z,17.10
2018-07-01T23:50:00.814Z,17.20
2018-07-01T23:52:28.966Z,17.10
2018-07-01T23:54:57.101Z,17.10
2018-07-01T23:57:25.269Z,17.10
2018-07-01T23:59:53.431Z,17.00
